sensor_id;sensor_type;location;lat;lon;timestamp;P1;durP1;ratioP1;P2;durP2;ratioP2
5393;SDS011;2720;52.396;10.064;2023-05-07T00:00:49;34.30;;;17.37;;
5393;SDS011;2720;52.396;10.064;2023-05-07T00:03:16;31.67;;;17.30;;
5393;SDS011;2720;52.396;10.064;2023-05-07T00:05:44;36.03;;;18.93;;
5393;SDS011;2720;52.396;10.064;2023-05-07T00:08:11;36.63;;;19.53;;
5393;SDS011;2720;52.396;10.064;2023-05-07T00:10:38;32.13;;;17.43;;
5393;SDS011;2720;52.396;10.064;2023-05-07T00:13:05;35.60;;;20.20;;
5393;SDS011;2720;52.396;10.064;2023-05-07T00:15:33;41.70;;;19.50;;
5393;SDS011;2720;52.396;10.064;2023-05-07T00:18:00;35.63;;;19.00;;
5393;SDS011;2720;52.396;10.064;2023-05-07T00:20:27;36.40;;;18.90;;
5393;SDS011;2720;52.396;10.064;2023-05-07T00:22:54;37.60;;;19.80;;
5393;SDS011;2720;52.396;10.064;2023-05-07T00:25:21;42.70;;;20.30;;
5393;SDS011;2720;52.396;10.064;2023-05-07T00:27:48;45.00;;;21.87;;
5393;SDS011;2720;52.396;10.064;2023-05-07T00:30:15;37.93;;;19.27;;
5393;SDS011;2720;52.396;10.064;2023-05-07T00:32:43;38.20;;;21.40;;
5393;SDS011;2720;52.396;10.064;2023-05-07T00:35:11;35.43;;;19.50;;
5393;SDS011;2720;52.396;10.064;2023-05-07T00:37:38;39.57;;;21.00;;
5393;SDS011;2720;52.396;10.064;2023-05-07T00:40:06;38.60;;;20.77;;
5393;SDS011;2720;52.396;10.064;2023-05-07T00:42:33;43.83;;;22.57;;
5393;SDS011;2720;52.396;10.064;2023-05-07T00:45:00;42.03;;;21.60;;
5393;SDS011;2720;52.396;10.064;2023-05-07T00:47:27;48.20;;;21.70;;
5393;SDS011;2720;52.396;10.064;2023-05-07T00:49:56;40.97;;;21.93;;
5393;SDS011;2720;52.396;10.064;2023-05-07T00:52:25;46.00;;;22.23;;
5393;SDS011;2720;52.396;10.064;2023-05-07T00:54:52;42.87;;;21.30;;
5393;SDS011;2720;52.396;10.064;2023-05-07T00:57:20;35.50;;;20.10;;
5393;SDS011;2720;52.396;10.064;2023-05-07T00:59:48;39.20;;;21.00;;
5393;SDS011;2720;52.396;10.064;2023-05-07T01:02:15;38.23;;;19.37;;
5393;SDS011;2720;52.396;10.064;2023-05-07T01:04:42;45.00;;;21.70;;
5393;SDS011;2720;52.396;10.064;2023-05-07T01:07:11;40.93;;;20.00;;
5393;SDS011;2720;52.396;10.064;2023-05-07T01:09:38;41.60;;;20.70;;
5393;SDS011;2720;52.396;10.064;2023-05-07T01:12:06;39.30;;;21.70;;
5393;SDS011;2720;52.396;10.064;2023-05-07T01:14:34;38.63;;;21.30;;
5393;SDS011;2720;52.396;10.064;2023-05-07T01:17:01;45.57;;;21.27;;
5393;SDS011;2720;52.396;10.064;2023-05-07T01:19:28;38.33;;;21.27;;
5393;SDS011;2720;52.396;10.064;2023-05-07T01:21:57;40.40;;;21.23;;
5393;SDS011;2720;52.396;10.064;2023-05-07T01:24:31;44.83;;;23.07;;
5393;SDS011;2720;52.396;10.064;2023-05-07T01:26:58;44.20;;;24.10;;
5393;SDS011;2720;52.396;10.064;2023-05-07T01:29:26;47.47;;;23.10;;
5393;SDS011;2720;52.396;10.064;2023-05-07T01:31:53;46.20;;;23.13;;
5393;SDS011;2720;52.396;10.064;2023-05-07T01:34:23;45.67;;;23.77;;
5393;SDS011;2720;52.396;10.064;2023-05-07T01:36:52;43.90;;;22.10;;
5393;SDS011;2720;52.396;10.064;2023-05-07T01:39:20;51.17;;;22.17;;
5393;SDS011;2720;52.396;10.064;2023-05-07T01:41:50;41.07;;;20.90;;
5393;SDS011;2720;52.396;10.064;2023-05-07T01:44:17;44.33;;;22.50;;
5393;SDS011;2720;52.396;10.064;2023-05-07T01:46:45;38.53;;;19.83;;
5393;SDS011;2720;52.396;10.064;2023-05-07T01:49:13;43.03;;;21.20;;
5393;SDS011;2720;52.396;10.064;2023-05-07T01:51:41;37.97;;;19.97;;
5393;SDS011;2720;52.396;10.064;2023-05-07T01:54:08;38.13;;;20.50;;
5393;SDS011;2720;52.396;10.064;2023-05-07T01:56:36;38.03;;;19.90;;
5393;SDS011;2720;52.396;10.064;2023-05-07T01:59:04;34.73;;;19.13;;
5393;SDS011;2720;52.396;10.064;2023-05-07T02:01:31;35.03;;;18.80;;
5393;SDS011;2720;52.396;10.064;2023-05-07T02:03:58;31.13;;;17.03;;
5393;SDS011;2720;52.396;10.064;2023-05-07T02:06:25;29.97;;;17.77;;
5393;SDS011;2720;52.396;10.064;2023-05-07T02:08:52;29.10;;;16.23;;
5393;SDS011;2720;52.396;10.064;2023-05-07T02:11:18;31.90;;;18.13;;
5393;SDS011;2720;52.396;10.064;2023-05-07T02:13:46;33.17;;;16.83;;
5393;SDS011;2720;52.396;10.064;2023-05-07T02:16:14;36.87;;;17.53;;
5393;SDS011;2720;52.396;10.064;2023-05-07T02:18:41;31.43;;;16.77;;
5393;SDS011;2720;52.396;10.064;2023-05-07T02:21:08;27.93;;;15.03;;
5393;SDS011;2720;52.396;10.064;2023-05-07T02:23:35;29.00;;;14.60;;
5393;SDS011;2720;52.396;10.064;2023-05-07T02:26:03;30.43;;;14.47;;
5393;SDS011;2720;52.396;10.064;2023-05-07T02:28:30;26.33;;;14.17;;
5393;SDS011;2720;52.396;10.064;2023-05-07T02:31:00;27.50;;;15.13;;
5393;SDS011;2720;52.396;10.064;2023-05-07T02:33:29;25.87;;;13.27;;
5393;SDS011;2720;52.396;10.064;2023-05-07T02:35:56;27.53;;;11.80;;
5393;SDS011;2720;52.396;10.064;2023-05-07T02:38:30;28.27;;;14.80;;
5393;SDS011;2720;52.396;10.064;2023-05-07T02:40:57;28.47;;;13.90;;
5393;SDS011;2720;52.396;10.064;2023-05-07T02:43:24;24.53;;;12.60;;
5393;SDS011;2720;52.396;10.064;2023-05-07T02:45:59;20.77;;;12.23;;
5393;SDS011;2720;52.396;10.064;2023-05-07T02:48:26;22.37;;;12.30;;
5393;SDS011;2720;52.396;10.064;2023-05-07T02:50:55;21.40;;;12.27;;
5393;SDS011;2720;52.396;10.064;2023-05-07T02:53:22;28.20;;;12.70;;
5393;SDS011;2720;52.396;10.064;2023-05-07T02:55:51;19.63;;;11.47;;
5393;SDS011;2720;52.396;10.064;2023-05-07T02:58:18;18.07;;;11.57;;
5393;SDS011;2720;52.396;10.064;2023-05-07T03:00:45;21.60;;;11.67;;
5393;SDS011;2720;52.396;10.064;2023-05-07T03:03:12;17.53;;;10.87;;
5393;SDS011;2720;52.396;10.064;2023-05-07T03:05:39;19.60;;;12.00;;
5393;SDS011;2720;52.396;10.064;2023-05-07T03:08:08;16.37;;;11.10;;
5393;SDS011;2720;52.396;10.064;2023-05-07T03:10:35;19.00;;;11.20;;
5393;SDS011;2720;52.396;10.064;2023-05-07T03:13:03;24.50;;;12.47;;
5393;SDS011;2720;52.396;10.064;2023-05-07T03:15:30;25.53;;;12.60;;
5393;SDS011;2720;52.396;10.064;2023-05-07T03:17:57;22.93;;;12.60;;
5393;SDS011;2720;52.396;10.064;2023-05-07T03:20:24;20.10;;;11.97;;
5393;SDS011;2720;52.396;10.064;2023-05-07T03:22:51;21.60;;;12.20;;
5393;SDS011;2720;52.396;10.064;2023-05-07T03:25:19;19.33;;;11.63;;
5393;SDS011;2720;52.396;10.064;2023-05-07T03:27:46;27.07;;;12.97;;
5393;SDS011;2720;52.396;10.064;2023-05-07T03:30:13;19.47;;;11.57;;
5393;SDS011;2720;52.396;10.064;2023-05-07T03:32:40;21.27;;;11.43;;
5393;SDS011;2720;52.396;10.064;2023-05-07T03:35:07;22.77;;;12.77;;
5393;SDS011;2720;52.396;10.064;2023-05-07T03:37:34;19.33;;;10.23;;
5393;SDS011;2720;52.396;10.064;2023-05-07T03:40:02;21.27;;;12.20;;
5393;SDS011;2720;52.396;10.064;2023-05-07T03:42:30;19.63;;;12.03;;
5393;SDS011;2720;52.396;10.064;2023-05-07T03:44:57;21.53;;;11.83;;
5393;SDS011;2720;52.396;10.064;2023-05-07T03:47:24;20.33;;;12.20;;
5393;SDS011;2720;52.396;10.064;2023-05-07T03:49:51;17.60;;;10.80;;
5393;SDS011;2720;52.396;10.064;2023-05-07T03:52:19;23.90;;;12.10;;
5393;SDS011;2720;52.396;10.064;2023-05-07T03:54:50;20.47;;;11.10;;
5393;SDS011;2720;52.396;10.064;2023-05-07T03:57:18;20.20;;;11.70;;
5393;SDS011;2720;52.396;10.064;2023-05-07T03:59:46;17.80;;;10.67;;
5393;SDS011;2720;52.396;10.064;2023-05-07T04:02:13;20.80;;;11.33;;
5393;SDS011;2720;52.396;10.064;2023-05-07T04:04:40;23.37;;;12.43;;
5393;SDS011;2720;52.396;10.064;2023-05-07T04:07:07;20.87;;;12.63;;
5393;SDS011;2720;52.396;10.064;2023-05-07T04:09:35;21.50;;;12.40;;
5393;SDS011;2720;52.396;10.064;2023-05-07T04:12:02;24.33;;;12.40;;
5393;SDS011;2720;52.396;10.064;2023-05-07T04:14:31;22.40;;;11.60;;
5393;SDS011;2720;52.396;10.064;2023-05-07T04:17:00;20.37;;;10.03;;
5393;SDS011;2720;52.396;10.064;2023-05-07T04:19:27;17.07;;;10.40;;
5393;SDS011;2720;52.396;10.064;2023-05-07T04:21:54;21.13;;;12.17;;
5393;SDS011;2720;52.396;10.064;2023-05-07T04:24:21;22.70;;;10.10;;
5393;SDS011;2720;52.396;10.064;2023-05-07T04:26:48;21.90;;;11.93;;
5393;SDS011;2720;52.396;10.064;2023-05-07T04:29:16;20.20;;;11.40;;
5393;SDS011;2720;52.396;10.064;2023-05-07T04:31:43;25.17;;;12.47;;
5393;SDS011;2720;52.396;10.064;2023-05-07T04:34:12;21.57;;;11.53;;
5393;SDS011;2720;52.396;10.064;2023-05-07T04:36:39;20.63;;;12.77;;
5393;SDS011;2720;52.396;10.064;2023-05-07T04:39:06;27.07;;;10.40;;
5393;SDS011;2720;52.396;10.064;2023-05-07T04:41:34;21.87;;;11.80;;
5393;SDS011;2720;52.396;10.064;2023-05-07T04:44:02;23.07;;;13.50;;
5393;SDS011;2720;52.396;10.064;2023-05-07T04:46:31;25.20;;;12.87;;
5393;SDS011;2720;52.396;10.064;2023-05-07T04:48:58;17.37;;;10.10;;
5393;SDS011;2720;52.396;10.064;2023-05-07T04:51:26;23.10;;;12.07;;
5393;SDS011;2720;52.396;10.064;2023-05-07T04:53:53;20.40;;;11.30;;
5393;SDS011;2720;52.396;10.064;2023-05-07T04:56:20;21.40;;;11.73;;
5393;SDS011;2720;52.396;10.064;2023-05-07T04:58:47;15.53;;;10.20;;
5393;SDS011;2720;52.396;10.064;2023-05-07T05:01:14;18.33;;;10.63;;
5393;SDS011;2720;52.396;10.064;2023-05-07T05:03:41;19.20;;;9.70;;
5393;SDS011;2720;52.396;10.064;2023-05-07T05:06:08;14.13;;;9.57;;
5393;SDS011;2720;52.396;10.064;2023-05-07T05:08:37;14.30;;;8.80;;
5393;SDS011;2720;52.396;10.064;2023-05-07T05:11:04;16.87;;;9.73;;
5393;SDS011;2720;52.396;10.064;2023-05-07T05:13:31;15.67;;;10.00;;
5393;SDS011;2720;52.396;10.064;2023-05-07T05:15:58;18.83;;;9.10;;
5393;SDS011;2720;52.396;10.064;2023-05-07T05:18:25;16.40;;;10.50;;
5393;SDS011;2720;52.396;10.064;2023-05-07T05:20:52;15.90;;;9.73;;
5393;SDS011;2720;52.396;10.064;2023-05-07T05:23:18;18.13;;;9.47;;
5393;SDS011;2720;52.396;10.064;2023-05-07T05:25:47;15.87;;;10.10;;
5393;SDS011;2720;52.396;10.064;2023-05-07T05:28:14;14.33;;;8.80;;
5393;SDS011;2720;52.396;10.064;2023-05-07T05:30:41;16.03;;;10.33;;
5393;SDS011;2720;52.396;10.064;2023-05-07T05:33:08;15.43;;;10.07;;
5393;SDS011;2720;52.396;10.064;2023-05-07T05:35:35;13.83;;;9.30;;
5393;SDS011;2720;52.396;10.064;2023-05-07T05:38:02;16.27;;;9.47;;
5393;SDS011;2720;52.396;10.064;2023-05-07T05:40:29;21.07;;;9.70;;
5393;SDS011;2720;52.396;10.064;2023-05-07T05:42:57;17.60;;;10.83;;
5393;SDS011;2720;52.396;10.064;2023-05-07T05:45:24;17.30;;;9.90;;
5393;SDS011;2720;52.396;10.064;2023-05-07T05:47:51;13.03;;;8.63;;
5393;SDS011;2720;52.396;10.064;2023-05-07T05:50:18;15.10;;;8.70;;
5393;SDS011;2720;52.396;10.064;2023-05-07T05:52:45;15.47;;;9.20;;
5393;SDS011;2720;52.396;10.064;2023-05-07T05:55:12;17.13;;;10.13;;
5393;SDS011;2720;52.396;10.064;2023-05-07T05:57:39;11.33;;;7.87;;
5393;SDS011;2720;52.396;10.064;2023-05-07T06:00:08;15.23;;;8.70;;
5393;SDS011;2720;52.396;10.064;2023-05-07T06:02:36;11.47;;;7.97;;
5393;SDS011;2720;52.396;10.064;2023-05-07T06:05:03;13.40;;;7.63;;
5393;SDS011;2720;52.396;10.064;2023-05-07T06:07:31;12.40;;;7.50;;
5393;SDS011;2720;52.396;10.064;2023-05-07T06:09:58;13.37;;;8.37;;
5393;SDS011;2720;52.396;10.064;2023-05-07T06:12:25;10.93;;;7.10;;
5393;SDS011;2720;52.396;10.064;2023-05-07T06:14:52;16.20;;;8.17;;
5393;SDS011;2720;52.396;10.064;2023-05-07T06:17:20;10.00;;;6.53;;
5393;SDS011;2720;52.396;10.064;2023-05-07T06:19:47;12.83;;;7.10;;
5393;SDS011;2720;52.396;10.064;2023-05-07T06:22:14;12.37;;;7.20;;
5393;SDS011;2720;52.396;10.064;2023-05-07T06:24:41;9.67;;;6.40;;
5393;SDS011;2720;52.396;10.064;2023-05-07T06:27:08;12.93;;;8.40;;
5393;SDS011;2720;52.396;10.064;2023-05-07T06:29:35;10.80;;;7.13;;
5393;SDS011;2720;52.396;10.064;2023-05-07T06:32:08;13.93;;;7.57;;
5393;SDS011;2720;52.396;10.064;2023-05-07T06:34:37;11.87;;;7.17;;
5393;SDS011;2720;52.396;10.064;2023-05-07T06:37:05;11.77;;;7.67;;
5393;SDS011;2720;52.396;10.064;2023-05-07T06:39:32;14.33;;;8.17;;
5393;SDS011;2720;52.396;10.064;2023-05-07T06:42:00;13.03;;;7.40;;
5393;SDS011;2720;52.396;10.064;2023-05-07T06:44:27;10.47;;;6.87;;
5393;SDS011;2720;52.396;10.064;2023-05-07T06:46:54;23.63;;;8.60;;
5393;SDS011;2720;52.396;10.064;2023-05-07T06:49:21;13.20;;;7.83;;
5393;SDS011;2720;52.396;10.064;2023-05-07T06:51:49;12.40;;;8.47;;
5393;SDS011;2720;52.396;10.064;2023-05-07T06:54:16;14.20;;;8.00;;
5393;SDS011;2720;52.396;10.064;2023-05-07T06:56:43;12.20;;;8.30;;
5393;SDS011;2720;52.396;10.064;2023-05-07T06:59:10;14.77;;;8.97;;
5393;SDS011;2720;52.396;10.064;2023-05-07T07:01:37;14.40;;;9.30;;
5393;SDS011;2720;52.396;10.064;2023-05-07T07:04:04;14.80;;;9.97;;
5393;SDS011;2720;52.396;10.064;2023-05-07T07:06:31;16.33;;;9.77;;
5393;SDS011;2720;52.396;10.064;2023-05-07T07:08:59;19.00;;;8.87;;
5393;SDS011;2720;52.396;10.064;2023-05-07T07:11:26;14.90;;;10.07;;
5393;SDS011;2720;52.396;10.064;2023-05-07T07:13:53;14.90;;;10.10;;
5393;SDS011;2720;52.396;10.064;2023-05-07T07:16:20;15.03;;;9.40;;
5393;SDS011;2720;52.396;10.064;2023-05-07T07:18:47;15.13;;;10.10;;
5393;SDS011;2720;52.396;10.064;2023-05-07T07:21:14;18.63;;;11.70;;
5393;SDS011;2720;52.396;10.064;2023-05-07T07:23:41;15.37;;;9.07;;
5393;SDS011;2720;52.396;10.064;2023-05-07T07:26:09;17.77;;;9.40;;
5393;SDS011;2720;52.396;10.064;2023-05-07T07:28:41;18.90;;;11.63;;
5393;SDS011;2720;52.396;10.064;2023-05-07T07:31:09;15.97;;;9.43;;
5393;SDS011;2720;52.396;10.064;2023-05-07T07:33:36;13.27;;;8.43;;
5393;SDS011;2720;52.396;10.064;2023-05-07T07:36:03;12.90;;;8.30;;
5393;SDS011;2720;52.396;10.064;2023-05-07T07:38:31;14.53;;;9.37;;
5393;SDS011;2720;52.396;10.064;2023-05-07T07:40:58;12.43;;;8.37;;
5393;SDS011;2720;52.396;10.064;2023-05-07T07:43:26;15.80;;;9.23;;
5393;SDS011;2720;52.396;10.064;2023-05-07T07:45:53;13.27;;;8.33;;
5393;SDS011;2720;52.396;10.064;2023-05-07T07:48:20;14.10;;;8.73;;
5393;SDS011;2720;52.396;10.064;2023-05-07T07:50:48;14.13;;;9.13;;
5393;SDS011;2720;52.396;10.064;2023-05-07T07:53:16;12.67;;;7.43;;
5393;SDS011;2720;52.396;10.064;2023-05-07T07:55:43;12.73;;;7.83;;
5393;SDS011;2720;52.396;10.064;2023-05-07T07:58:10;12.47;;;7.43;;
5393;SDS011;2720;52.396;10.064;2023-05-07T08:00:38;12.63;;;7.87;;
5393;SDS011;2720;52.396;10.064;2023-05-07T08:03:05;16.73;;;8.40;;
5393;SDS011;2720;52.396;10.064;2023-05-07T08:05:35;11.50;;;7.73;;
5393;SDS011;2720;52.396;10.064;2023-05-07T08:08:03;12.00;;;7.90;;
5393;SDS011;2720;52.396;10.064;2023-05-07T08:10:31;13.70;;;8.20;;
5393;SDS011;2720;52.396;10.064;2023-05-07T08:12:59;11.57;;;7.43;;
5393;SDS011;2720;52.396;10.064;2023-05-07T08:15:27;15.60;;;8.73;;
5393;SDS011;2720;52.396;10.064;2023-05-07T08:17:55;13.20;;;6.97;;
5393;SDS011;2720;52.396;10.064;2023-05-07T08:20:23;12.10;;;7.50;;
5393;SDS011;2720;52.396;10.064;2023-05-07T08:22:51;13.60;;;8.47;;
5393;SDS011;2720;52.396;10.064;2023-05-07T08:25:18;12.70;;;6.87;;
5393;SDS011;2720;52.396;10.064;2023-05-07T08:27:45;12.43;;;6.67;;
5393;SDS011;2720;52.396;10.064;2023-05-07T08:30:12;13.93;;;7.40;;
5393;SDS011;2720;52.396;10.064;2023-05-07T08:32:40;10.33;;;6.30;;
5393;SDS011;2720;52.396;10.064;2023-05-07T08:35:08;11.80;;;7.10;;
5393;SDS011;2720;52.396;10.064;2023-05-07T08:37:35;13.40;;;8.07;;
5393;SDS011;2720;52.396;10.064;2023-05-07T08:40:03;12.20;;;7.20;;
5393;SDS011;2720;52.396;10.064;2023-05-07T08:42:31;13.53;;;7.67;;
5393;SDS011;2720;52.396;10.064;2023-05-07T08:45:01;14.63;;;8.13;;
5393;SDS011;2720;52.396;10.064;2023-05-07T08:47:33;10.47;;;6.80;;
5393;SDS011;2720;52.396;10.064;2023-05-07T08:50:06;11.23;;;6.77;;
5393;SDS011;2720;52.396;10.064;2023-05-07T08:52:35;13.23;;;7.40;;
5393;SDS011;2720;52.396;10.064;2023-05-07T08:55:03;12.00;;;8.10;;
5393;SDS011;2720;52.396;10.064;2023-05-07T08:57:30;10.90;;;7.20;;
5393;SDS011;2720;52.396;10.064;2023-05-07T08:59:57;12.93;;;6.57;;
5393;SDS011;2720;52.396;10.064;2023-05-07T09:02:24;8.80;;;6.07;;
5393;SDS011;2720;52.396;10.064;2023-05-07T09:04:51;12.23;;;7.37;;
5393;SDS011;2720;52.396;10.064;2023-05-07T09:07:20;10.03;;;7.10;;
5393;SDS011;2720;52.396;10.064;2023-05-07T09:09:48;13.07;;;6.83;;
5393;SDS011;2720;52.396;10.064;2023-05-07T09:12:15;10.23;;;6.10;;
5393;SDS011;2720;52.396;10.064;2023-05-07T09:14:43;9.87;;;6.17;;
5393;SDS011;2720;52.396;10.064;2023-05-07T09:17:11;12.20;;;7.33;;
5393;SDS011;2720;52.396;10.064;2023-05-07T09:19:38;10.60;;;6.13;;
5393;SDS011;2720;52.396;10.064;2023-05-07T09:22:05;9.87;;;6.83;;
5393;SDS011;2720;52.396;10.064;2023-05-07T09:24:34;9.40;;;6.17;;
5393;SDS011;2720;52.396;10.064;2023-05-07T09:27:02;18.00;;;7.80;;
5393;SDS011;2720;52.396;10.064;2023-05-07T09:29:30;12.23;;;7.73;;
5393;SDS011;2720;52.396;10.064;2023-05-07T09:32:00;15.60;;;9.00;;
5393;SDS011;2720;52.396;10.064;2023-05-07T09:34:28;17.33;;;9.10;;
5393;SDS011;2720;52.396;10.064;2023-05-07T09:36:55;12.60;;;8.57;;
5393;SDS011;2720;52.396;10.064;2023-05-07T09:39:23;11.27;;;8.70;;
5393;SDS011;2720;52.396;10.064;2023-05-07T09:41:52;25.23;;;8.00;;
5393;SDS011;2720;52.396;10.064;2023-05-07T09:44:20;12.93;;;8.13;;
5393;SDS011;2720;52.396;10.064;2023-05-07T09:46:49;13.60;;;8.63;;
5393;SDS011;2720;52.396;10.064;2023-05-07T09:49:21;11.43;;;7.87;;
5393;SDS011;2720;52.396;10.064;2023-05-07T09:51:50;14.07;;;8.90;;
5393;SDS011;2720;52.396;10.064;2023-05-07T09:54:18;12.77;;;8.73;;
5393;SDS011;2720;52.396;10.064;2023-05-07T09:56:45;11.70;;;7.80;;
5393;SDS011;2720;52.396;10.064;2023-05-07T09:59:15;15.07;;;8.70;;
5393;SDS011;2720;52.396;10.064;2023-05-07T10:01:43;12.97;;;7.63;;
5393;SDS011;2720;52.396;10.064;2023-05-07T10:04:11;12.50;;;7.73;;
5393;SDS011;2720;52.396;10.064;2023-05-07T10:06:38;11.13;;;8.20;;
5393;SDS011;2720;52.396;10.064;2023-05-07T10:09:06;14.80;;;8.80;;
5393;SDS011;2720;52.396;10.064;2023-05-07T10:11:33;11.20;;;8.47;;
5393;SDS011;2720;52.396;10.064;2023-05-07T10:14:00;26.13;;;8.37;;
5393;SDS011;2720;52.396;10.064;2023-05-07T10:16:30;11.60;;;7.20;;
5393;SDS011;2720;52.396;10.064;2023-05-07T10:18:58;13.63;;;8.60;;
5393;SDS011;2720;52.396;10.064;2023-05-07T10:21:26;20.13;;;8.83;;
5393;SDS011;2720;52.396;10.064;2023-05-07T10:23:57;10.77;;;8.17;;
5393;SDS011;2720;52.396;10.064;2023-05-07T10:26:26;14.97;;;9.40;;
5393;SDS011;2720;52.396;10.064;2023-05-07T10:28:56;10.37;;;6.73;;
5393;SDS011;2720;52.396;10.064;2023-05-07T10:31:32;13.67;;;8.00;;
5393;SDS011;2720;52.396;10.064;2023-05-07T10:34:12;11.97;;;7.47;;
5393;SDS011;2720;52.396;10.064;2023-05-07T10:36:42;12.23;;;8.23;;
5393;SDS011;2720;52.396;10.064;2023-05-07T10:39:10;15.00;;;9.03;;
5393;SDS011;2720;52.396;10.064;2023-05-07T10:41:37;12.33;;;8.03;;
5393;SDS011;2720;52.396;10.064;2023-05-07T10:44:05;9.30;;;6.70;;
5393;SDS011;2720;52.396;10.064;2023-05-07T10:46:34;10.33;;;7.80;;
5393;SDS011;2720;52.396;10.064;2023-05-07T10:49:07;10.30;;;6.60;;
5393;SDS011;2720;52.396;10.064;2023-05-07T10:51:37;8.50;;;5.60;;
5393;SDS011;2720;52.396;10.064;2023-05-07T10:54:20;10.27;;;7.20;;
5393;SDS011;2720;52.396;10.064;2023-05-07T10:56:48;10.40;;;6.20;;
5393;SDS011;2720;52.396;10.064;2023-05-07T10:59:35;9.20;;;5.60;;
5393;SDS011;2720;52.396;10.064;2023-05-07T11:02:10;9.20;;;6.10;;
5393;SDS011;2720;52.396;10.064;2023-05-07T11:04:39;13.27;;;6.93;;
5393;SDS011;2720;52.396;10.064;2023-05-07T11:09:55;9.47;;;6.50;;
5393;SDS011;2720;52.396;10.064;2023-05-07T11:15:44;8.87;;;5.70;;
5393;SDS011;2720;52.396;10.064;2023-05-07T11:18:14;8.27;;;6.17;;
5393;SDS011;2720;52.396;10.064;2023-05-07T11:26:28;8.10;;;5.60;;
5393;SDS011;2720;52.396;10.064;2023-05-07T11:28:57;8.00;;;5.80;;
5393;SDS011;2720;52.396;10.064;2023-05-07T11:31:26;10.13;;;5.60;;
5393;SDS011;2720;52.396;10.064;2023-05-07T11:33:56;9.03;;;6.80;;
5393;SDS011;2720;52.396;10.064;2023-05-07T11:36:23;9.33;;;5.67;;
5393;SDS011;2720;52.396;10.064;2023-05-07T11:38:52;9.63;;;6.80;;
5393;SDS011;2720;52.396;10.064;2023-05-07T11:41:19;7.70;;;5.43;;
5393;SDS011;2720;52.396;10.064;2023-05-07T11:43:56;6.83;;;5.27;;
5393;SDS011;2720;52.396;10.064;2023-05-07T11:46:24;7.77;;;5.90;;
5393;SDS011;2720;52.396;10.064;2023-05-07T11:48:51;8.80;;;5.90;;
5393;SDS011;2720;52.396;10.064;2023-05-07T11:51:20;7.17;;;5.30;;
5393;SDS011;2720;52.396;10.064;2023-05-07T11:53:48;8.17;;;5.70;;
5393;SDS011;2720;52.396;10.064;2023-05-07T11:56:15;8.77;;;6.03;;
5393;SDS011;2720;52.396;10.064;2023-05-07T11:58:44;8.00;;;5.77;;
5393;SDS011;2720;52.396;10.064;2023-05-07T12:01:12;10.80;;;5.47;;
5393;SDS011;2720;52.396;10.064;2023-05-07T12:03:41;12.20;;;5.17;;
5393;SDS011;2720;52.396;10.064;2023-05-07T12:06:09;9.33;;;5.60;;
5393;SDS011;2720;52.396;10.064;2023-05-07T12:08:38;7.07;;;5.50;;
5393;SDS011;2720;52.396;10.064;2023-05-07T12:11:07;5.63;;;4.67;;
5393;SDS011;2720;52.396;10.064;2023-05-07T12:13:36;7.73;;;5.17;;
5393;SDS011;2720;52.396;10.064;2023-05-07T12:16:04;7.23;;;5.00;;
5393;SDS011;2720;52.396;10.064;2023-05-07T12:18:32;5.57;;;3.70;;
5393;SDS011;2720;52.396;10.064;2023-05-07T12:21:01;7.83;;;4.90;;
5393;SDS011;2720;52.396;10.064;2023-05-07T12:23:28;6.53;;;4.40;;
5393;SDS011;2720;52.396;10.064;2023-05-07T12:25:57;6.20;;;4.30;;
5393;SDS011;2720;52.396;10.064;2023-05-07T12:28:25;6.13;;;4.27;;
5393;SDS011;2720;52.396;10.064;2023-05-07T12:30:52;5.23;;;3.70;;
5393;SDS011;2720;52.396;10.064;2023-05-07T12:33:23;8.20;;;4.37;;
5393;SDS011;2720;52.396;10.064;2023-05-07T12:35:51;7.13;;;4.20;;
5393;SDS011;2720;52.396;10.064;2023-05-07T12:38:20;6.10;;;4.77;;
5393;SDS011;2720;52.396;10.064;2023-05-07T12:40:53;6.90;;;4.50;;
5393;SDS011;2720;52.396;10.064;2023-05-07T12:43:24;7.87;;;4.00;;
5393;SDS011;2720;52.396;10.064;2023-05-07T12:45:53;9.07;;;4.10;;
5393;SDS011;2720;52.396;10.064;2023-05-07T12:48:22;5.33;;;3.70;;
5393;SDS011;2720;52.396;10.064;2023-05-07T12:50:52;6.70;;;4.83;;
5393;SDS011;2720;52.396;10.064;2023-05-07T12:53:20;7.33;;;4.53;;
5393;SDS011;2720;52.396;10.064;2023-05-07T12:55:48;8.27;;;5.67;;
5393;SDS011;2720;52.396;10.064;2023-05-07T12:58:17;11.53;;;5.10;;
5393;SDS011;2720;52.396;10.064;2023-05-07T13:00:47;8.97;;;5.50;;
5393;SDS011;2720;52.396;10.064;2023-05-07T13:03:21;7.57;;;5.50;;
5393;SDS011;2720;52.396;10.064;2023-05-07T13:05:50;8.60;;;5.10;;
5393;SDS011;2720;52.396;10.064;2023-05-07T13:08:24;7.20;;;4.97;;
5393;SDS011;2720;52.396;10.064;2023-05-07T13:10:51;8.80;;;5.10;;
5393;SDS011;2720;52.396;10.064;2023-05-07T13:13:18;8.73;;;5.40;;
5393;SDS011;2720;52.396;10.064;2023-05-07T13:15:47;9.10;;;5.30;;
5393;SDS011;2720;52.396;10.064;2023-05-07T13:18:15;6.73;;;4.83;;
5393;SDS011;2720;52.396;10.064;2023-05-07T13:20:42;7.50;;;4.53;;
5393;SDS011;2720;52.396;10.064;2023-05-07T13:23:09;9.53;;;5.57;;
5393;SDS011;2720;52.396;10.064;2023-05-07T13:25:35;7.00;;;5.00;;
5393;SDS011;2720;52.396;10.064;2023-05-07T13:28:02;7.53;;;4.77;;
5393;SDS011;2720;52.396;10.064;2023-05-07T13:30:30;7.07;;;4.73;;
5393;SDS011;2720;52.396;10.064;2023-05-07T13:32:58;8.10;;;5.60;;
5393;SDS011;2720;52.396;10.064;2023-05-07T13:35:25;7.97;;;5.73;;
5393;SDS011;2720;52.396;10.064;2023-05-07T13:37:52;11.30;;;5.63;;
5393;SDS011;2720;52.396;10.064;2023-05-07T13:40:20;12.40;;;5.10;;
5393;SDS011;2720;52.396;10.064;2023-05-07T13:42:47;9.60;;;5.20;;
5393;SDS011;2720;52.396;10.064;2023-05-07T13:45:14;9.27;;;5.20;;
5393;SDS011;2720;52.396;10.064;2023-05-07T13:47:41;10.13;;;5.37;;
5393;SDS011;2720;52.396;10.064;2023-05-07T13:50:10;8.70;;;4.93;;
5393;SDS011;2720;52.396;10.064;2023-05-07T13:52:39;9.57;;;4.97;;
5393;SDS011;2720;52.396;10.064;2023-05-07T13:55:08;10.10;;;5.37;;
5393;SDS011;2720;52.396;10.064;2023-05-07T13:57:35;10.20;;;5.43;;
5393;SDS011;2720;52.396;10.064;2023-05-07T14:00:02;8.20;;;4.83;;
5393;SDS011;2720;52.396;10.064;2023-05-07T14:02:30;9.73;;;5.50;;
5393;SDS011;2720;52.396;10.064;2023-05-07T14:04:57;7.93;;;4.80;;
5393;SDS011;2720;52.396;10.064;2023-05-07T14:07:26;8.07;;;5.00;;
5393;SDS011;2720;52.396;10.064;2023-05-07T14:09:53;6.87;;;5.53;;
5393;SDS011;2720;52.396;10.064;2023-05-07T14:12:20;5.87;;;4.03;;
5393;SDS011;2720;52.396;10.064;2023-05-07T14:14:47;8.27;;;4.60;;
5393;SDS011;2720;52.396;10.064;2023-05-07T14:17:15;8.80;;;4.90;;
5393;SDS011;2720;52.396;10.064;2023-05-07T14:19:42;7.83;;;4.70;;
5393;SDS011;2720;52.396;10.064;2023-05-07T14:22:09;8.60;;;4.40;;
5393;SDS011;2720;52.396;10.064;2023-05-07T14:24:37;8.27;;;4.80;;
5393;SDS011;2720;52.396;10.064;2023-05-07T14:27:05;7.30;;;4.53;;
5393;SDS011;2720;52.396;10.064;2023-05-07T14:29:32;7.50;;;4.00;;
5393;SDS011;2720;52.396;10.064;2023-05-07T14:32:00;8.40;;;4.40;;
5393;SDS011;2720;52.396;10.064;2023-05-07T14:34:28;7.47;;;3.63;;
5393;SDS011;2720;52.396;10.064;2023-05-07T14:36:55;8.40;;;4.23;;
5393;SDS011;2720;52.396;10.064;2023-05-07T14:39:22;8.40;;;4.40;;
5393;SDS011;2720;52.396;10.064;2023-05-07T14:41:50;10.53;;;5.83;;
5393;SDS011;2720;52.396;10.064;2023-05-07T14:44:19;7.30;;;4.50;;
5393;SDS011;2720;52.396;10.064;2023-05-07T14:46:46;7.30;;;4.10;;
5393;SDS011;2720;52.396;10.064;2023-05-07T14:49:14;7.30;;;4.30;;
5393;SDS011;2720;52.396;10.064;2023-05-07T14:51:42;6.90;;;3.70;;
5393;SDS011;2720;52.396;10.064;2023-05-07T14:54:10;9.30;;;4.53;;
5393;SDS011;2720;52.396;10.064;2023-05-07T14:56:37;7.00;;;3.90;;
5393;SDS011;2720;52.396;10.064;2023-05-07T14:59:05;10.03;;;5.40;;
5393;SDS011;2720;52.396;10.064;2023-05-07T15:01:33;8.50;;;4.40;;